createdAt,value
2022-09-30T00:00:12.164Z,96576.94
2022-09-30T00:05:15.666Z,96580.97
2022-09-30T00:10:20.521Z,96588.81
2022-09-30T00:15:24.216Z,96595.53
2022-09-30T00:20:27.636Z,96597.75
2022-09-30T00:25:32.566Z,96598.50
2022-09-30T00:30:35.992Z,96596.31
2022-09-30T00:35:39.430Z,96596.59
2022-09-30T00:40:44.482Z,96598.28
2022-09-30T00:45:52.605Z,96596.19
2022-09-30T00:50:56.813Z,96595.13
2022-09-30T00:56:04.842Z,96605.19
2022-09-30T01:01:10.108Z,96613.56
2022-09-30T01:06:14.070Z,96611.78
2022-09-30T01:11:18.906Z,96608.19
2022-09-30T01:16:42.325Z,96611.22
2022-09-30T01:22:12.340Z,96607.16
2022-09-30T01:27:48.512Z,96613.81
2022-09-30T01:33:11.625Z,96614.88
2022-09-30T01:38:28.104Z,96604.63
2022-09-30T01:43:40.768Z,96605.25
2022-09-30T01:48:52.423Z,96614.94
2022-09-30T01:54:01.214Z,96607.69
2022-09-30T01:59:09.661Z,96615.13
2022-09-30T02:04:21.021Z,96624.81
2022-09-30T02:09:30.324Z,96633.38
2022-09-30T02:14:38.659Z,96624.25
2022-09-30T02:19:47.078Z,96625.94
2022-09-30T02:24:56.233Z,96625.28
2022-09-30T02:30:04.139Z,96632.34
2022-09-30T02:35:14.002Z,96626.00
2022-09-30T02:40:23.126Z,96631.09
2022-09-30T02:45:27.288Z,96637.59
2022-09-30T02:50:36.259Z,96634.53
2022-09-30T02:55:51.186Z,96646.66
2022-09-30T03:00:55.902Z,96645.44
2022-09-30T03:06:00.927Z,96646.38
2022-09-30T03:11:05.850Z,96648.25
2022-09-30T03:16:20.544Z,96650.31
2022-09-30T03:21:38.758Z,96651.59
2022-09-30T03:26:52.050Z,96672.75
2022-09-30T03:32:09.232Z,96669.38
2022-09-30T03:37:27.099Z,96678.34
2022-09-30T03:42:38.615Z,96680.56
2022-09-30T03:47:47.785Z,96685.72
2022-09-30T03:52:53.150Z,96691.78
2022-09-30T03:57:57.759Z,96690.53
2022-09-30T04:03:01.475Z,96697.31
2022-09-30T04:08:06.389Z,96704.06
2022-09-30T04:13:09.896Z,96700.69
2022-09-30T04:18:13.630Z,96715.06
2022-09-30T04:23:18.961Z,96718.50
2022-09-30T04:28:23.243Z,96721.75
2022-09-30T04:33:27.585Z,96715.31
2022-09-30T04:38:33.625Z,96716.38
2022-09-30T04:43:37.721Z,96717.16
2022-09-30T04:48:45.929Z,96726.41
2022-09-30T04:53:51.819Z,96722.19
2022-09-30T04:58:55.747Z,96718.19
2022-09-30T05:03:59.307Z,96727.88
2022-09-30T05:09:04.764Z,96735.22
2022-09-30T05:14:09.905Z,96735.78
2022-09-30T05:19:13.551Z,96743.88
2022-09-30T05:24:18.989Z,96742.78
2022-09-30T05:29:22.524Z,96748.66
2022-09-30T05:34:26.564Z,96751.09
2022-09-30T05:39:31.389Z,96759.41
2022-09-30T05:44:34.909Z,96755.78
2022-09-30T05:49:40.195Z,96772.94
2022-09-30T05:54:45.348Z,96776.25
2022-09-30T05:59:48.862Z,96778.56
2022-09-30T06:04:52.437Z,96787.13
2022-09-30T06:09:57.376Z,96790.28
2022-09-30T06:15:01.125Z,96796.09
2022-09-30T06:20:05.631Z,96802.25
2022-09-30T06:25:11.520Z,96803.47
2022-09-30T06:30:15.418Z,96815.44
2022-09-30T06:35:19.566Z,96829.00
2022-09-30T06:40:25.011Z,96829.81
2022-09-30T06:45:32.981Z,96838.63
2022-09-30T06:50:39.235Z,96846.94
2022-09-30T06:55:44.380Z,96850.50
2022-09-30T07:00:48.154Z,96848.94
2022-09-30T07:05:58.244Z,96859.56
2022-09-30T07:11:05.526Z,96871.31
2022-09-30T07:16:09.162Z,96870.53
2022-09-30T07:21:13.727Z,96869.41
2022-09-30T07:26:20.750Z,96869.97
2022-09-30T07:31:35.325Z,96875.22
2022-09-30T07:36:40.434Z,96883.47
2022-09-30T07:41:45.372Z,96870.91
2022-09-30T07:46:48.931Z,96878.06
2022-09-30T07:51:53.955Z,96875.59
2022-09-30T07:57:15.956Z,96888.88
2022-09-30T08:02:20.748Z,96886.63
2022-09-30T08:07:24.222Z,96894.72
2022-09-30T08:12:29.218Z,96896.22
2022-09-30T08:17:32.733Z,96883.41
2022-09-30T08:22:36.166Z,96894.69
2022-09-30T08:27:41.186Z,96891.91
2022-09-30T08:32:44.794Z,96892.31
2022-09-30T08:37:48.364Z,96895.47
2022-09-30T08:43:10.253Z,96892.81
2022-09-30T08:48:29.983Z,96896.38
2022-09-30T08:53:37.670Z,96899.63
2022-09-30T08:58:45.396Z,96909.38
2022-09-30T09:03:49.232Z,96901.66
2022-09-30T09:09:19.873Z,96918.13
2022-09-30T09:14:39.288Z,96916.09
2022-09-30T09:19:48.612Z,96912.53
2022-09-30T09:24:54.830Z,96905.09
2022-09-30T09:30:07.660Z,96909.53
2022-09-30T09:35:16.471Z,96896.06
2022-09-30T09:40:28.510Z,96890.47
2022-09-30T09:45:39.782Z,96890.41
2022-09-30T09:50:51.750Z,96899.53
2022-09-30T09:55:59.385Z,96898.84
2022-09-30T10:01:32.106Z,96882.78
2022-09-30T10:06:44.838Z,96889.09
2022-09-30T10:11:48.491Z,96882.34
2022-09-30T10:17:00.757Z,96867.84
2022-09-30T10:22:20.492Z,96879.56
2022-09-30T10:27:31.683Z,96871.13
2022-09-30T10:32:37.454Z,96879.91
2022-09-30T10:37:52.307Z,96872.06
2022-09-30T10:42:57.109Z,96871.59
2022-09-30T10:48:07.681Z,96855.28
2022-09-30T10:53:18.227Z,96849.91
2022-09-30T10:58:38.475Z,96855.28
2022-09-30T11:03:56.095Z,96856.38
2022-09-30T11:09:07.239Z,96859.22
2022-09-30T11:14:28.511Z,96860.38
2022-09-30T11:19:37.348Z,96850.88
2022-09-30T11:24:44.812Z,96855.72
2022-09-30T11:30:02.094Z,96853.56
2022-09-30T11:35:22.325Z,96854.88
2022-09-30T11:40:32.330Z,96852.56
2022-09-30T11:45:50.596Z,96845.72
2022-09-30T11:51:04.177Z,96849.41
2022-09-30T11:56:21.826Z,96847.75
2022-09-30T12:01:32.732Z,96857.88
2022-09-30T12:06:40.988Z,96859.22
2022-09-30T12:11:51.847Z,96863.44
2022-09-30T12:16:58.532Z,96867.41
2022-09-30T12:22:11.903Z,96867.59
2022-09-30T12:27:20.147Z,96872.91
2022-09-30T12:33:13.123Z,96872.44
2022-09-30T12:38:39.220Z,96884.25
2022-09-30T12:44:16.923Z,96876.84
2022-09-30T12:49:24.616Z,96878.59
2022-09-30T12:54:35.020Z,96880.47
2022-09-30T12:59:45.632Z,96880.44
2022-09-30T13:04:52.078Z,96889.72
2022-09-30T13:10:26.999Z,96881.34
2022-09-30T13:15:44.305Z,96884.94
2022-09-30T13:20:55.357Z,96880.03
2022-09-30T13:26:02.075Z,96880.41
2022-09-30T13:31:19.071Z,96879.13
2022-09-30T13:36:30.137Z,96882.50
2022-09-30T13:41:38.739Z,96886.31
2022-09-30T13:46:49.945Z,96889.59
2022-09-30T13:51:56.638Z,96893.28
2022-09-30T13:57:03.633Z,96901.53
2022-09-30T14:02:39.748Z,96894.75
2022-09-30T14:07:58.054Z,96893.88
2022-09-30T14:13:19.688Z,96898.94
2022-09-30T14:18:44.313Z,96897.44
2022-09-30T14:23:57.366Z,96891.09
2022-09-30T14:29:09.356Z,96888.78
2022-09-30T14:34:15.164Z,96892.47
2022-09-30T14:39:22.218Z,96899.59
2022-09-30T14:44:29.810Z,96893.84
2022-09-30T14:49:37.592Z,96892.50
2022-09-30T14:54:48.632Z,96889.91
2022-09-30T14:59:53.615Z,96892.47
2022-09-30T15:05:01.799Z,96887.34
2022-09-30T15:10:07.582Z,96883.78
2022-09-30T15:15:36.876Z,96892.69
2022-09-30T15:20:42.452Z,96897.28
2022-09-30T15:25:45.984Z,96900.97
2022-09-30T15:30:54.259Z,96904.75
2022-09-30T15:36:06.976Z,96905.94
2022-09-30T15:41:12.955Z,96903.66
2022-09-30T15:46:38.623Z,96893.59
2022-09-30T15:51:44.372Z,96910.47
2022-09-30T15:56:48.072Z,96917.88
2022-09-30T16:01:58.114Z,96915.19
2022-09-30T16:07:09.787Z,96927.94
2022-09-30T16:12:21.275Z,96922.09
2022-09-30T16:17:28.978Z,96930.03
2022-09-30T16:22:49.218Z,96929.31
2022-09-30T16:27:57.823Z,96931.75
2022-09-30T16:33:06.058Z,96933.75
2022-09-30T16:38:14.140Z,96937.53
2022-09-30T16:43:17.791Z,96931.63
2022-09-30T16:48:22.664Z,96940.63
2022-09-30T16:53:26.173Z,96938.25
2022-09-30T16:58:31.261Z,96945.16
2022-09-30T17:03:35.986Z,96941.63
2022-09-30T17:08:39.333Z,96940.41
2022-09-30T17:13:43.225Z,96942.94
2022-09-30T17:18:48.267Z,96936.03
2022-09-30T17:23:52.384Z,96937.28
2022-09-30T17:29:08.789Z,96934.63
2022-09-30T17:34:19.780Z,96933.38
2022-09-30T17:39:33.210Z,96936.41
2022-09-30T17:44:39.147Z,96939.78
2022-09-30T17:49:45.360Z,96944.00
2022-09-30T17:54:58.256Z,96960.50
2022-09-30T18:00:05.198Z,96968.16
2022-09-30T18:05:14.540Z,96964.91
2022-09-30T18:10:18.343Z,96959.91
2022-09-30T18:15:27.119Z,96962.78
2022-09-30T18:20:44.890Z,96971.97
2022-09-30T18:25:52.229Z,96966.06
2022-09-30T18:30:55.755Z,96957.34
2022-09-30T18:36:03.232Z,96968.31
2022-09-30T18:41:07.467Z,96963.25
2022-09-30T18:46:10.887Z,96971.44
2022-09-30T18:51:18.893Z,96977.63
2022-09-30T18:56:24.151Z,96993.13
2022-09-30T19:01:27.946Z,96998.97
2022-09-30T19:06:33.158Z,96993.41
2022-09-30T19:11:37.444Z,96993.47
2022-09-30T19:16:44.037Z,96997.50
2022-09-30T19:21:49.795Z,97001.50
2022-09-30T19:26:53.223Z,97008.97
2022-09-30T19:31:58.518Z,96998.16
2022-09-30T19:37:03.694Z,97000.16
2022-09-30T19:42:09.357Z,97005.22
2022-09-30T19:47:12.948Z,96991.78
2022-09-30T19:52:22.122Z,96987.88
2022-09-30T19:57:27.976Z,96987.03
2022-09-30T20:02:31.675Z,96965.00
2022-09-30T20:07:39.411Z,96962.56
2022-09-30T20:12:44.665Z,96958.47
2022-09-30T20:17:50.364Z,96956.47
2022-09-30T20:22:55.645Z,96951.84
2022-09-30T20:27:59.537Z,96955.94
2022-09-30T20:33:04.490Z,96963.34
2022-09-30T20:38:13.763Z,96966.09
2022-09-30T20:43:17.681Z,96965.97
2022-09-30T20:48:21.391Z,96959.97
2022-09-30T20:53:26.690Z,96954.69
2022-09-30T20:58:30.133Z,96969.16
2022-09-30T21:03:36.122Z,96967.38
2022-09-30T21:08:43.087Z,96965.22
2022-09-30T21:13:50.535Z,96969.94
2022-09-30T21:18:55.716Z,96965.28
2022-09-30T21:24:02.328Z,96972.31
2022-09-30T21:29:06.224Z,96974.56
2022-09-30T21:34:13.813Z,96980.38
2022-09-30T21:39:18.599Z,96976.97
2022-09-30T21:44:23.360Z,96981.72
2022-09-30T21:49:26.680Z,96977.06
2022-09-30T21:54:31.390Z,96979.59
2022-09-30T21:59:46.318Z,96962.22
2022-09-30T22:04:52.046Z,96964.91
2022-09-30T22:09:56.968Z,96958.97
2022-09-30T22:15:00.333Z,96954.13
2022-09-30T22:20:03.863Z,96951.88
2022-09-30T22:25:10.338Z,96947.66
2022-09-30T22:30:14.027Z,96942.81
2022-09-30T22:35:35.044Z,96941.25
2022-09-30T22:40:39.957Z,96941.44
2022-09-30T22:45:43.988Z,96938.66
2022-09-30T22:50:48.092Z,96931.94
2022-09-30T22:55:53.146Z,96919.84
2022-09-30T23:00:58.736Z,96918.72
2022-09-30T23:06:03.299Z,96912.13
2022-09-30T23:11:09.754Z,96913.09
2022-09-30T23:16:16.664Z,96911.63
2022-09-30T23:21:21.657Z,96908.94
2022-09-30T23:26:28.439Z,96915.31
2022-09-30T23:31:32.506Z,96922.03
2022-09-30T23:36:38.060Z,96906.94
2022-09-30T23:41:46.338Z,96916.09
2022-09-30T23:47:09.814Z,96908.09
2022-09-30T23:52:14.131Z,96910.78
2022-09-30T23:57:18.823Z,96898.69
